Time;durP1;ratioP1;P1;durP2;ratioP2;P2;SDS_P1;SDS_P2;PMS_P1;PMS_P2;Temp;Humidity;BMP_temperature;BMP_pressure;BME280_temperature;BME280_humidity;BME280_pressure;Samples;Min_cycle;Max_cycle;Signal;HPM_P1;HPM_P2
2023/01/03 00:01:23;;;;;;;8.60;5.95;;;;;;;13.42;55.29;100784.63;4909740;28;98045;-79
2023/01/03 00:03:49;;;;;;;12.85;6.95;;;;;;;13.37;55.80;100792.69;4925938;28;101534;-79
2023/01/03 00:06:23;;;;;;;13.02;7.55;;;;;;;13.47;55.80;100816.94;4909573;28;97446;-78
2023/01/03 00:08:49;;;;;;;11.05;7.25;;;;;;;13.42;55.54;100819.75;4937656;28;97941;-78
2023/01/03 00:12:22;;;;;;;9.32;6.72;;;;;;;13.42;55.44;100819.75;4911170;28;101202;-78
2023/01/03 00:14:07;;;;;;;10.93;6.85;;;;;;;13.39;56.22;100824.28;4925492;28;101144;-79
2023/01/03 00:16:32;;;;;;;9.95;6.75;;;;;;;13.42;55.98;100826.81;4927681;28;98042;-79
2023/01/03 00:18:58;;;;;;;10.27;6.78;;;;;;;13.45;56.14;100838.09;4945653;28;97310;-79
2023/01/03 00:21:23;;;;;;;9.80;6.78;;;;;;;13.47;56.42;100835.41;4934764;28;97596;-79
2023/01/03 00:23:49;;;;;;;10.57;7.07;;;;;;;13.44;56.49;100844.28;4895768;28;100988;-79
2023/01/03 00:26:14;;;;;;;8.48;6.45;;;;;;;13.44;56.47;100853.97;4911241;28;97484;-78
2023/01/03 00:28:41;;;;;;;12.23;7.55;;;;;;;13.43;56.79;100852.25;4942393;28;97432;-78
2023/01/03 00:31:08;;;;;;;9.68;7.30;;;;;;;13.42;56.96;100847.91;4925804;28;101719;-78
2023/01/03 00:33:38;;;;;;;11.15;7.47;;;;;;;13.41;58.12;100844.41;4926124;28;101514;-79
2023/01/03 00:36:06;;;;;;;10.40;7.18;;;;;;;13.33;58.89;100835.91;4942115;28;97759;-78
2023/01/03 00:38:33;;;;;;;13.20;7.85;;;;;;;13.41;58.51;100856.72;4928439;28;97259;-78
2023/01/03 00:41:15;;;;;;;9.70;7.90;;;;;;;13.29;59.53;100850.13;4909727;28;101748;-78
2023/01/03 00:43:44;;;;;;;11.93;7.20;;;;;;;13.31;59.45;100854.41;4890119;28;101753;-79
2023/01/03 00:46:11;;;;;;;12.18;7.53;;;;;;;13.22;60.47;100846.81;4939149;28;97458;-80
2023/01/03 00:48:37;;;;;;;13.35;7.15;;;;;;;13.27;60.36;100868.66;4928886;28;96978;-80
2023/01/03 00:51:06;;;;;;;12.35;7.32;;;;;;;13.26;60.78;100872.19;4891158;28;100935;-79
2023/01/03 00:53:31;;;;;;;9.80;7.05;;;;;;;13.09;60.80;100840.28;4937134;28;101761;-80
2023/01/03 00:56:02;;;;;;;13.90;7.35;;;;;;;13.24;61.39;100876.63;4953809;28;97532;-80
2023/01/03 00:58:30;;;;;;;11.40;7.07;;;;;;;13.23;61.69;100884.59;4912708;28;97009;-80
2023/01/03 01:00:55;;;;;;;9.07;6.57;;;;;;;13.21;61.20;100894.34;4909703;28;102040;-80
2023/01/03 01:03:21;;;;;;;10.30;6.07;;;;;;;13.15;61.59;100898.06;4943044;28;97304;-79
2023/01/03 01:05:46;;;;;;;8.68;5.60;;;;;;;13.14;61.37;100899.81;4920859;28;97650;-80
2023/01/03 01:08:12;;;;;;;7.88;5.25;;;;;;;12.98;62.10;100877.56;4912658;28;97534;-79
2023/01/03 01:11:00;;;;;;;7.60;5.00;;;;;;;13.09;61.50;100898.28;4960521;28;97742;-79
2023/01/03 01:13:30;;;;;;;5.90;4.38;;;;;;;13.02;62.07;100894.13;4910078;28;101348;-80
2023/01/03 01:16:09;;;;;;;6.95;5.03;;;;;;;12.99;62.22;100896.88;4937254;28;97474;-79
2023/01/03 01:18:36;;;;;;;6.80;4.70;;;;;;;13.06;61.94;100917.69;4916169;28;97150;-79
2023/01/03 01:21:04;;;;;;;7.72;4.70;;;;;;;12.95;61.98;100906.66;4925553;28;97448;-80
2023/01/03 01:23:30;;;;;;;6.43;4.68;;;;;;;13.00;62.41;100920.53;4908904;28;101212;-80
2023/01/03 01:25:59;;;;;;;8.15;4.55;;;;;;;13.02;62.38;100926.59;4942675;28;98554;-79
2023/01/03 01:28:24;;;;;;;5.32;3.95;;;;;;;12.94;62.77;100920.72;4909127;28;97675;-80
2023/01/03 01:30:51;;;;;;;4.90;3.20;;;;;;;13.04;62.12;100934.47;4908703;28;101178;-79
2023/01/03 01:33:16;;;;;;;6.10;3.65;;;;;;;13.01;62.19;100934.56;4917752;28;97509;-80
2023/01/03 01:35:42;;;;;;;6.68;3.63;;;;;;;13.01;62.48;100935.44;4928075;28;96828;-80
2023/01/03 01:38:07;;;;;;;5.80;3.70;;;;;;;12.91;62.93;100915.56;4892000;28;97382;-80
2023/01/03 01:40:33;;;;;;;6.20;3.83;;;;;;;12.82;62.66;100906.19;4935993;28;100901;-80
2023/01/03 01:45:54;;;;;;;4.53;3.58;;;;;;;12.78;62.11;100920.41;4946486;28;97189;-80
2023/01/03 01:48:19;;;;;;;5.10;3.67;;;;;;;12.85;63.27;100926.31;4923325;28;97921;-79
2023/01/03 01:50:55;;;;;;;5.68;3.55;;;;;;;12.87;62.68;100932.41;4948964;28;97545;-79
2023/01/03 01:53:23;;;;;;;4.63;3.20;;;;;;;12.82;62.81;100931.69;4891053;28;101510;-80
2023/01/03 01:55:59;;;;;;;5.75;3.97;;;;;;;12.74;63.24;100917.91;4943602;28;97646;-79
2023/01/03 01:58:28;;;;;;;5.72;3.90;;;;;;;12.73;63.69;100924.09;4944111;28;97828;-80
2023/01/03 02:00:54;;;;;;;5.38;3.70;;;;;;;12.78;63.11;100941.47;4944283;28;98457;-80
2023/01/03 02:03:19;;;;;;;5.63;3.60;;;;;;;12.69;63.14;100934.75;4912405;28;97931;-81
2023/01/03 02:05:50;;;;;;;6.63;4.10;;;;;;;12.79;63.51;100950.25;4937369;28;97249;-80
2023/01/03 02:08:15;;;;;;;7.18;4.25;;;;;;;12.67;63.00;100936.56;4927548;28;96911;-79
2023/01/03 02:11:05;;;;;;;4.85;4.03;;;;;;;12.77;63.55;100960.84;4943520;28;98015;-79
2023/01/03 02:14:03;;;;;;;5.93;3.97;;;;;;;12.77;63.25;100963.47;4922688;28;101090;-80
2023/01/03 02:16:57;;;;;;;7.68;4.20;;;;;;;12.77;63.25;100963.47;4925318;28;102026;-80
2023/01/03 02:19:45;;;;;;;6.43;4.00;;;;;;;12.77;63.35;100966.13;4917628;28;97077;-80
2023/01/03 02:22:18;;;;;;;6.97;3.80;;;;;;;12.79;63.88;100976.59;4918005;28;98122;-80
2023/01/03 02:25:00;;;;;;;6.28;3.90;;;;;;;12.77;63.75;100983.66;4950812;28;97378;-80
2023/01/03 02:28:09;;;;;;;5.82;3.97;;;;;;;12.78;63.57;100986.25;4927327;28;97441;-79
2023/01/03 02:31:14;;;;;;;6.10;3.88;;;;;;;12.75;63.20;100988.16;4926996;28;97389;-79
2023/01/03 02:33:46;;;;;;;6.32;3.97;;;;;;;12.65;63.30;100975.28;4907307;28;101707;-80
2023/01/03 02:36:18;;;;;;;6.03;3.20;;;;;;;12.75;63.55;100991.63;4898630;28;97524;-80
2023/01/03 02:38:56;;;;;;;6.28;3.85;;;;;;;12.74;63.32;100991.66;4940217;28;97299;-79
2023/01/03 02:41:21;;;;;;;5.30;3.20;;;;;;;12.75;63.42;101009.22;4913391;28;97743;-80
2023/01/03 02:43:54;;;;;;;4.93;3.10;;;;;;;12.74;63.48;101004.84;4919477;28;97969;-80
2023/01/03 02:46:31;;;;;;;3.97;2.97;;;;;;;12.73;63.22;101000.50;4915776;28;101365;-78
2023/01/03 02:49:07;;;;;;;5.93;3.28;;;;;;;12.74;63.37;101000.47;4908163;28;97990;-79
2023/01/03 02:51:40;;;;;;;3.92;2.97;;;;;;;12.64;63.07;100991.97;4914489;28;97611;-79
2023/01/03 02:54:09;;;;;;;4.60;2.83;;;;;;;12.66;63.40;100997.19;4924939;28;101353;-80
2023/01/03 02:56:40;;;;;;;4.95;3.08;;;;;;;12.68;63.41;101006.78;4897973;28;101235;-80
2023/01/03 02:59:11;;;;;;;5.37;3.23;;;;;;;12.64;63.78;101005.13;4947850;28;98269;-79
2023/01/03 03:01:43;;;;;;;5.28;2.67;;;;;;;12.66;63.38;101005.09;4946618;28;96927;-79
2023/01/03 03:04:12;;;;;;;4.90;3.08;;;;;;;12.69;62.91;101008.50;4930718;28;100618;-79
2023/01/03 03:07:01;;;;;;;3.50;2.85;;;;;;;12.69;63.15;101023.44;4924236;28;101208;-79
2023/01/03 03:09:26;;;;;;;3.28;2.63;;;;;;;12.69;63.19;101026.94;4940767;28;97397;-79
2023/01/03 03:14:45;;;;;;;4.47;2.85;;;;;;;12.67;63.18;101027.88;4951474;28;101610;-80
2023/01/03 03:17:22;;;;;;;4.40;2.63;;;;;;;12.69;62.69;101036.63;4929935;28;101896;-79
2023/01/03 03:25:46;;;;;;;5.50;2.70;;;;;;;12.65;62.71;101035.84;4945913;28;101326;-79
2023/01/03 03:31:07;;;;;;;2.80;1.88;;;;;;;12.65;62.62;101040.25;4949143;28;97339;-80
2023/01/03 03:33:38;;;;;;;3.15;2.33;;;;;;;12.63;62.49;101039.44;4930784;28;97322;-79
2023/01/03 03:36:10;;;;;;;;;;;;;;;12.58;62.24;101046.63;4957333;28;98342;-79
2023/01/03 03:38:43;;;;;;;2.67;2.00;;;;;;;12.55;62.33;101047.56;4922140;28;101148;-79
2023/01/03 03:47:01;;;;;;;2.63;1.70;;;;;;;12.54;61.93;101058.16;4941647;28;101675;-79
2023/01/03 03:49:36;;;;;;;2.73;1.97;;;;;;;12.52;62.36;101055.56;4914311;28;101027;-80
2023/01/03 03:52:04;;;;;;;5.55;1.90;;;;;;;12.54;62.20;101056.38;4905791;28;98031;-79
2023/01/03 03:54:33;;;;;;;3.30;1.98;;;;;;;12.54;62.19;101058.16;4926529;28;97298;-79
2023/01/03 03:57:05;;;;;;;2.70;1.75;;;;;;;12.53;62.59;101066.97;4958886;28;97977;-79
2023/01/03 03:59:31;;;;;;;3.78;1.70;;;;;;;12.49;62.42;101066.19;4914488;28;97980;-80
2023/01/03 04:01:58;;;;;;;1.60;1.50;;;;;;;12.49;62.26;101062.69;4915785;28;97317;-78
2023/01/03 04:04:30;;;;;;;2.22;1.60;;;;;;;12.45;62.22;101059.31;4941884;28;96844;-78
2023/01/03 04:06:55;;;;;;;2.78;1.80;;;;;;;12.38;62.22;101052.47;4921584;28;101585;-78
2023/01/03 04:09:21;;;;;;;1.52;1.15;;;;;;;12.43;61.93;101069.00;4897369;28;101217;-78
2023/01/03 04:11:46;;;;;;;1.63;1.42;;;;;;;12.43;62.13;101071.66;4911522;28;97288;-78
2023/01/03 04:14:12;;;;;;;2.17;1.60;;;;;;;12.35;61.50;101063.09;4936335;28;99932;-79
2023/01/03 04:16:39;;;;;;;2.13;1.60;;;;;;;12.31;61.73;101058.84;4902670;28;101192;-78
2023/01/03 04:19:05;;;;;;;2.58;1.40;;;;;;;12.37;61.64;101080.59;4913203;28;101245;-79
2023/01/03 04:21:31;;;;;;;1.73;1.52;;;;;;;12.40;61.78;101090.16;4913571;28;97629;-79
2023/01/03 04:23:56;;;;;;;2.13;1.77;;;;;;;12.37;61.76;101092.91;4913983;28;97483;-78
2023/01/03 04:26:22;;;;;;;1.73;1.30;;;;;;;12.35;61.82;101084.16;4929068;28;100891;-78
2023/01/03 04:28:47;;;;;;;2.00;1.60;;;;;;;12.35;61.38;101094.69;4945032;28;102197;-78
2023/01/03 04:31:13;;;;;;;5.32;2.00;;;;;;;12.28;61.61;101094.03;4961884;28;96761;-79
2023/01/03 04:33:39;;;;;;;3.08;1.73;;;;;;;12.28;61.82;101104.56;4929217;28;97768;-78
2023/01/03 04:36:05;;;;;;;2.65;1.70;;;;;;;12.28;62.00;101103.69;4917741;28;98060;-78
2023/01/03 04:38:31;;;;;;;1.77;1.40;;;;;;;12.22;62.06;101110.84;4953657;28;97813;-78
2023/01/03 04:41:05;;;;;;;2.28;1.77;;;;;;;12.25;61.94;101112.53;4928187;28;96878;-78
2023/01/03 04:46:15;;;;;;;2.08;1.50;;;;;;;12.21;61.94;101119.63;4936055;28;101590;-79
2023/01/03 04:48:40;;;;;;;2.58;1.73;;;;;;;12.16;62.13;101125.97;4913068;28;97905;-79
2023/01/03 04:51:06;;;;;;;3.15;1.50;;;;;;;12.16;62.06;101134.72;4912454;28;97174;-79
2023/01/03 04:53:31;;;;;;;3.13;2.30;;;;;;;12.15;62.19;101126.84;4911926;28;97468;-79
2023/01/03 04:55:57;;;;;;;3.65;1.95;;;;;;;12.14;62.02;101128.63;4927380;28;101242;-79
2023/01/03 04:58:23;;;;;;;3.10;1.92;;;;;;;12.05;62.24;101112.22;4928804;28;101339;-78
2023/01/03 05:00:49;;;;;;;3.78;2.15;;;;;;;12.13;62.06;101128.66;4928833;28;97129;-79
2023/01/03 05:03:14;;;;;;;6.75;3.75;;;;;;;12.16;61.73;101133.84;4946086;28;98049;-79
2023/01/03 05:05:40;;;;;;;7.18;3.55;;;;;;;12.11;62.10;101130.47;4911978;28;101051;-79
2023/01/03 05:08:07;;;;;;;3.95;2.78;;;;;;;12.13;61.91;101145.34;4921762;28;101138;-79
2023/01/03 05:10:32;;;;;;;3.15;2.40;;;;;;;12.00;62.11;101126.38;4928256;28;97192;-80
2023/01/03 05:12:59;;;;;;;4.47;2.50;;;;;;;12.07;61.74;101134.97;4899699;28;97558;-79
2023/01/03 05:15:26;;;;;;;6.55;2.90;;;;;;;12.12;61.87;101148.00;4921623;28;101695;-78
2023/01/03 05:17:52;;;;;;;3.15;2.47;;;;;;;12.11;61.95;101135.75;4944154;28;101288;-78
2023/01/03 05:25:49;;;;;;;3.42;1.80;;;;;;;12.11;62.05;101141.00;4945147;28;101457;-78
2023/01/03 05:28:15;;;;;;;3.47;2.40;;;;;;;12.05;61.54;101128.03;4945180;28;97950;-79
2023/01/03 05:30:40;;;;;;;3.58;2.83;;;;;;;12.12;62.25;101145.34;4960526;28;96840;-78
2023/01/03 05:33:06;;;;;;;5.78;3.85;;;;;;;12.10;62.10;101147.16;4945766;28;96905;-78
2023/01/03 05:35:32;;;;;;;5.72;4.15;;;;;;;12.09;62.05;101142.81;4944383;28;98202;-79
2023/01/03 05:37:57;;;;;;;5.28;3.92;;;;;;;12.12;61.45;101155.88;4953386;28;98381;-78
2023/01/03 05:40:23;;;;;;;4.82;3.53;;;;;;;12.05;62.06;101146.44;4928168;28;98175;-78
2023/01/03 05:42:48;;;;;;;5.75;3.88;;;;;;;12.05;62.22;101152.56;4912876;28;98094;-79
2023/01/03 05:45:14;;;;;;;3.90;2.60;;;;;;;11.94;61.72;101130.94;4943832;28;98639;-79
2023/01/03 05:47:39;;;;;;;3.42;2.63;;;;;;;12.08;62.25;101162.16;4944035;28;101496;-79
2023/01/03 05:50:05;;;;;;;3.72;2.90;;;;;;;12.05;62.16;101155.19;4925953;28;96937;-79
2023/01/03 05:52:31;;;;;;;5.00;2.15;;;;;;;12.07;61.78;101174.44;4923587;28;98304;-80
2023/01/03 05:54:56;;;;;;;3.03;2.20;;;;;;;12.08;62.04;101177.94;4927493;28;100721;-78
2023/01/03 05:57:23;;;;;;;2.08;1.60;;;;;;;12.05;62.02;101178.03;4928218;28;101963;-79
2023/01/03 05:59:48;;;;;;;2.72;1.65;;;;;;;12.06;62.25;101193.75;4944182;28;97232;-78
2023/01/03 06:02:14;;;;;;;2.88;1.92;;;;;;;12.03;62.03;101188.56;4912883;28;97242;-78
2023/01/03 06:04:39;;;;;;;2.63;1.77;;;;;;;12.03;62.09;101171.94;4915117;28;98128;-79
2023/01/03 06:07:05;;;;;;;2.72;1.50;;;;;;;12.03;61.77;101188.56;4920044;28;101171;-78
2023/01/03 06:09:30;;;;;;;2.85;1.55;;;;;;;12.04;61.87;101202.59;4925806;28;96864;-79
2023/01/03 06:11:56;;;;;;;2.95;1.83;;;;;;;12.03;62.20;101203.50;4924437;28;98047;-79
2023/01/03 06:14:22;;;;;;;2.95;1.92;;;;;;;12.08;61.99;101206.88;4924939;28;98511;-79
2023/01/03 06:19:31;;;;;;;2.70;2.00;;;;;;;12.06;62.33;101211.31;4955035;28;96784;-79
2023/01/03 06:21:57;;;;;;;3.78;1.95;;;;;;;11.94;61.98;101189.69;4932780;28;97700;-79
2023/01/03 06:24:22;;;;;;;2.08;1.60;;;;;;;12.05;61.97;101217.50;4915439;28;100738;-79
2023/01/03 06:26:48;;;;;;;4.03;2.00;;;;;;;12.03;62.38;101219.28;4908157;28;101478;-79
2023/01/03 06:29:13;;;;;;;3.58;2.25;;;;;;;12.04;62.19;101224.50;4908895;28;97017;-79
2023/01/03 06:31:39;;;;;;;5.13;2.45;;;;;;;12.03;62.09;101227.19;4916003;28;96995;-79
2023/01/03 06:34:04;;;;;;;6.53;3.03;;;;;;;12.01;62.25;101227.22;4926878;28;101019;-79
2023/01/03 06:36:33;;;;;;;10.15;3.85;;;;;;;12.02;62.73;101236.84;4933741;28;101406;-80
2023/01/03 06:38:59;;;;;;;7.07;3.53;;;;;;;12.03;62.05;101243.84;4920586;28;97167;-79
2023/01/03 06:41:24;;;;;;;9.18;3.60;;;;;;;12.02;62.49;101244.75;4904619;28;97121;-79
2023/01/03 06:43:50;;;;;;;13.10;4.20;;;;;;;12.00;62.55;101243.91;4903471;28;101613;-79
2023/01/03 06:54:33;;;;;;;6.15;3.30;;;;;;;11.91;62.46;101244.16;4952687;28;98261;-80
2023/01/03 06:56:58;;;;;;;7.80;3.25;;;;;;;12.03;62.74;101261.41;4904437;28;101842;-80
2023/01/03 06:59:24;;;;;;;7.50;3.67;;;;;;;12.03;62.59;101264.03;4924147;28;98528;-80
2023/01/03 07:01:51;;;;;;;15.65;4.00;;;;;;;12.00;62.35;101262.34;4915592;28;97351;-80
2023/01/03 07:04:17;;;;;;;8.23;3.67;;;;;;;12.00;62.15;101268.47;4927513;28;100890;-80
2023/01/03 07:06:43;;;;;;;9.32;2.85;;;;;;;11.96;62.30;101265.97;4891941;28;100976;-79
2023/01/03 07:09:09;;;;;;;7.63;3.10;;;;;;;12.02;62.14;101272.84;4927975;28;96868;-79
2023/01/03 07:11:35;;;;;;;5.78;2.88;;;;;;;12.01;62.22;101274.56;4907110;28;99904;-79
2023/01/03 07:14:02;;;;;;;4.10;2.45;;;;;;;12.02;62.39;101280.72;4940885;28;97485;-80
2023/01/03 07:16:36;;;;;;;3.33;2.75;;;;;;;11.94;62.58;101273.88;4892515;28;97930;-80
2023/01/03 07:19:03;;;;;;;7.35;2.72;;;;;;;12.00;62.26;101288.66;4939226;28;97935;-80
2023/01/03 07:21:30;;;;;;;4.15;3.05;;;;;;;11.98;61.90;101291.34;4898764;28;96846;-80
2023/01/03 07:23:57;;;;;;;4.35;2.63;;;;;;;11.94;62.07;101286.16;4923194;28;97452;-80
2023/01/03 07:26:24;;;;;;;6.10;3.22;;;;;;;12.03;62.25;101299.09;4925983;28;100998;-79
2023/01/03 07:28:50;;;;;;;4.05;3.05;;;;;;;12.00;62.02;101291.28;4912364;28;96829;-80
2023/01/03 07:31:16;;;;;;;5.05;3.20;;;;;;;12.04;62.28;101299.94;4929137;28;96980;-80
2023/01/03 07:33:44;;;;;;;4.28;3.17;;;;;;;12.00;62.09;101307.06;4929378;28;101043;-80
2023/01/03 07:36:10;;;;;;;3.88;3.03;;;;;;;11.98;62.29;101304.50;4918756;28;101349;-80
2023/01/03 07:38:37;;;;;;;3.22;2.90;;;;;;;12.02;62.32;101309.69;4940589;28;97216;-80
2023/01/03 07:41:03;;;;;;;4.00;3.20;;;;;;;12.02;62.18;101314.94;4938005;28;96848;-79
2023/01/03 07:43:38;;;;;;;5.40;3.10;;;;;;;12.00;62.65;101313.19;4952468;28;97963;-80
2023/01/03 07:46:19;;;;;;;5.43;3.55;;;;;;;12.02;62.42;101313.16;4911520;28;98319;-79
2023/01/03 07:48:47;;;;;;;9.88;5.13;;;;;;;11.97;62.28;101307.16;4923577;28;97457;-80
2023/01/03 07:51:15;;;;;;;14.77;5.78;;;;;;;12.02;62.72;101320.22;4933245;28;97835;-79
2023/01/03 07:53:40;;;;;;;8.57;4.50;;;;;;;11.91;62.03;101307.28;4914324;28;98001;-80
2023/01/03 07:56:11;;;;;;;9.20;5.05;;;;;;;12.02;62.39;101325.47;4926180;28;101374;-80
2023/01/03 07:58:38;;;;;;;11.20;4.55;;;;;;;12.01;62.17;101321.94;4913017;28;97007;-80
2023/01/03 08:01:09;;;;;;;8.30;4.68;;;;;;;12.04;62.29;101327.13;4923194;28;97308;-80
2023/01/03 08:03:35;;;;;;;6.20;3.92;;;;;;;12.03;62.34;101321.91;4956707;28;98358;-80
2023/01/03 08:06:03;;;;;;;7.93;3.30;;;;;;;11.93;62.06;101319.50;4938911;28;100115;-80
2023/01/03 08:08:28;;;;;;;7.53;3.88;;;;;;;11.86;61.96;101303.91;4923640;28;97234;-80
2023/01/03 08:13:39;;;;;;;5.95;3.40;;;;;;;11.97;61.74;101331.69;4917475;28;101983;-80
2023/01/03 08:16:07;;;;;;;8.05;4.75;;;;;;;12.05;61.69;101344.66;4931264;28;101546;-80
2023/01/03 08:18:32;;;;;;;5.82;3.97;;;;;;;12.05;61.81;101341.19;4955174;28;96764;-81
2023/01/03 08:20:58;;;;;;;6.32;3.53;;;;;;;12.06;61.66;101345.53;4937876;28;97075;-78
2023/01/03 08:23:23;;;;;;;10.02;3.92;;;;;;;12.08;61.82;101343.75;4945233;28;98174;-80
2023/01/03 08:25:49;;;;;;;7.00;3.70;;;;;;;12.01;61.23;101324.56;4895777;28;102678;-80
2023/01/03 08:28:15;;;;;;;6.53;3.10;;;;;;;12.14;61.20;101340.97;4912947;28;97156;-78
2023/01/03 08:30:46;;;;;;;4.85;3.35;;;;;;;12.08;61.70;101328.81;4929890;28;97481;-78
2023/01/03 08:33:14;;;;;;;5.93;3.08;;;;;;;12.23;61.34;101351.25;4913045;28;98676;-78
2023/01/03 08:35:45;;;;;;;5.63;3.80;;;;;;;12.22;61.16;101339.00;4904131;28;101584;-78
2023/01/03 08:38:14;;;;;;;6.30;3.03;;;;;;;12.43;60.70;101338.44;4905490;28;96885;-79
2023/01/03 08:40:40;;;;;;;5.47;2.97;;;;;;;12.51;61.01;101340.00;4916862;28;97004;-79
2023/01/03 08:43:07;;;;;;;7.13;3.08;;;;;;;12.56;60.59;101343.41;4912680;28;101468;-78
2023/01/03 08:45:33;;;;;;;4.65;3.30;;;;;;;12.54;60.16;101353.13;4929607;28;97390;-80
2023/01/03 08:48:00;;;;;;;7.40;3.65;;;;;;;12.53;60.37;101354.88;4955330;28;96779;-78
2023/01/03 08:50:26;;;;;;;5.00;2.92;;;;;;;12.46;60.10;101351.53;4911902;28;101656;-81
2023/01/03 08:52:52;;;;;;;6.30;3.42;;;;;;;12.27;59.69;101342.38;4944190;28;97898;-82
2023/01/03 08:55:18;;;;;;;8.57;4.30;;;;;;;12.41;59.95;101361.31;4934711;28;101373;-82
2023/01/03 08:57:43;;;;;;;8.35;3.80;;;;;;;12.42;59.70;101365.69;4935925;28;97397;-80
2023/01/03 09:00:10;;;;;;;6.63;3.40;;;;;;;12.36;59.77;101351.81;4931420;28;98311;-81
2023/01/03 09:02:36;;;;;;;6.03;3.78;;;;;;;12.45;59.53;101375.28;4918963;28;98123;-81
2023/01/03 09:05:04;;;;;;;9.98;3.50;;;;;;;12.47;60.15;101378.72;4900533;28;101436;-81
2023/01/03 09:07:31;;;;;;;4.18;3.22;;;;;;;12.38;59.81;101376.34;4934084;28;96893;-80
2023/01/03 09:09:57;;;;;;;4.30;3.28;;;;;;;12.38;59.67;101382.47;4912280;28;97348;-81
2023/01/03 09:12:23;;;;;;;4.45;3.03;;;;;;;12.30;59.69;101384.41;4935142;28;101870;-81
2023/01/03 09:14:48;;;;;;;4.50;3.25;;;;;;;12.34;59.95;101386.09;4925772;28;97579;-82
2023/01/03 09:17:14;;;;;;;8.75;3.08;;;;;;;12.30;59.64;101391.44;4930515;28;97349;-82
2023/01/03 09:19:39;;;;;;;5.72;3.30;;;;;;;12.35;60.02;101400.09;4923080;28;97574;-84
2023/01/03 09:22:05;;;;;;;4.63;3.00;;;;;;;12.19;60.03;101370.66;4905805;28;101696;-82
2023/01/03 09:24:30;;;;;;;5.00;3.35;;;;;;;12.18;59.91;101377.69;4916257;28;101216;-83
2023/01/03 09:26:56;;;;;;;4.00;3.35;;;;;;;12.30;59.88;101397.56;4920788;28;97528;-83
2023/01/03 09:29:22;;;;;;;4.55;3.28;;;;;;;12.27;59.71;101405.53;4924359;28;98272;-83
2023/01/03 09:31:47;;;;;;;5.65;2.97;;;;;;;12.24;59.80;101395.94;4921045;28;101147;-85
2023/01/03 09:34:13;;;;;;;4.97;3.25;;;;;;;12.21;60.15;101389.91;4914768;28;99295;-81
2023/01/03 09:36:39;;;;;;;4.63;3.20;;;;;;;12.24;59.96;101395.94;4934446;28;97356;-81
2023/01/03 09:39:04;;;;;;;7.30;3.45;;;;;;;12.20;60.43;101378.50;4906152;28;97439;-82
2023/01/03 09:41:31;;;;;;;4.55;3.10;;;;;;;12.39;60.16;101404.38;4916155;28;101385;-81
2023/01/03 09:44:06;;;;;;;4.93;3.15;;;;;;;12.40;59.75;101399.09;4904677;28;101371;-81
2023/01/03 09:46:32;;;;;;;5.07;2.70;;;;;;;12.37;59.72;101398.31;4919213;28;96815;-80
2023/01/03 09:48:58;;;;;;;6.47;2.70;;;;;;;12.39;59.14;101404.38;4925212;28;97444;-80
2023/01/03 10:03:44;;;;;;;3.38;2.70;;;;;;;12.45;59.10;101407.75;4953463;28;101210;-80
2023/01/03 10:06:34;;;;;;;3.50;2.85;;;;;;;12.43;58.93;101408.69;4946862;28;98524;-80
2023/01/03 10:09:06;;;;;;;4.88;2.88;;;;;;;12.44;59.19;101410.41;4932003;28;97646;-80
2023/01/03 10:11:37;;;;;;;6.55;3.50;;;;;;;12.40;59.12;101414.03;4914116;28;97094;-80
2023/01/03 10:14:37;;;;;;;4.95;3.55;;;;;;;12.35;59.56;101414.13;4931771;28;101548;-80
2023/01/03 10:17:21;;;;;;;5.57;3.50;;;;;;;12.34;60.37;101415.03;4916167;28;101072;-80
2023/01/03 10:19:58;;;;;;;4.40;2.90;;;;;;;12.22;60.12;101399.56;4903702;28;97245;-80
2023/01/03 10:22:28;;;;;;;4.80;3.35;;;;;;;12.23;59.88;101409.16;4921022;28;97443;-80
2023/01/03 10:25:18;;;;;;;5.50;2.70;;;;;;;12.17;59.74;101414.56;4921845;28;100269;-80
2023/01/03 10:27:50;;;;;;;4.80;2.78;;;;;;;12.13;59.46;101405.91;4952455;28;100956;-81
2023/01/03 10:30:18;;;;;;;3.53;2.47;;;;;;;12.15;59.38;101411.09;4935028;28;97463;-80
2023/01/03 10:33:05;;;;;;;4.68;2.58;;;;;;;12.19;59.71;101411.00;4910429;28;97241;-79
2023/01/03 10:35:33;;;;;;;6.55;2.55;;;;;;;12.15;59.46;101395.31;4915068;28;101121;-80
2023/01/03 10:37:59;;;;;;;3.65;2.70;;;;;;;12.26;59.40;101400.34;4934424;28;101501;-80
2023/01/03 10:40:37;;;;;;;6.50;2.90;;;;;;;12.35;59.77;101410.63;4920186;28;97449;-80
2023/01/03 10:43:16;;;;;;;5.95;2.90;;;;;;;12.36;59.54;101408.00;4913265;28;96907;-81
2023/01/03 10:46:00;;;;;;;5.30;2.92;;;;;;;12.35;59.10;101397.47;4918131;28;101538;-81
2023/01/03 10:48:38;;;;;;;3.38;2.45;;;;;;;12.33;59.35;101401.91;4921384;28;101883;-80
2023/01/03 10:51:05;;;;;;;4.40;2.55;;;;;;;12.30;59.28;101394.09;4915753;28;97770;-81
2023/01/03 10:53:37;;;;;;;7.47;3.08;;;;;;;12.23;58.86;101396.00;4936469;28;97204;-81
2023/01/03 10:56:04;;;;;;;4.20;2.65;;;;;;;12.24;58.89;101409.13;4908172;28;101458;-80
2023/01/03 10:58:30;;;;;;;4.60;2.33;;;;;;;12.26;58.98;101392.44;4920677;28;100864;-80
2023/01/03 11:01:19;;;;;;;12.00;4.20;;;;;;;12.39;58.79;101402.63;4928218;28;97128;-81
2023/01/03 11:04:06;;;;;;;55.97;14.70;;;;;;;12.48;58.70;101387.50;4905345;28;97357;-80
2023/01/03 11:06:32;;;;;;;7.07;2.97;;;;;;;12.71;59.13;101398.31;4933620;28;99765;-80
2023/01/03 11:09:01;;;;;;;9.75;2.95;;;;;;;12.84;58.62;101390.97;4925143;28;101974;-81
2023/01/03 11:11:35;;;;;;;4.63;3.10;;;;;;;13.02;58.53;101387.81;4929627;28;97643;-80
2023/01/03 11:14:23;;;;;;;5.13;2.47;;;;;;;13.07;57.78;101385.94;4926436;28;97580;-80
2023/01/03 11:16:59;;;;;;;5.85;3.08;;;;;;;13.06;57.95;101383.34;4910054;28;98062;-79
2023/01/03 11:19:29;;;;;;;5.10;2.90;;;;;;;13.05;57.78;101369.28;4923120;28;101342;-80
2023/01/03 11:22:04;;;;;;;7.00;2.90;;;;;;;13.04;57.31;101379.91;4925965;28;97179;-82
2023/01/03 11:24:49;;;;;;;8.43;2.95;;;;;;;13.01;57.98;101387.88;4919767;28;97412;-79
2023/01/03 11:27:37;;;;;;;7.78;3.30;;;;;;;12.98;57.32;101386.19;4948388;28;101443;-81
2023/01/03 11:30:08;;;;;;;6.05;3.85;;;;;;;12.98;57.78;101396.75;4927126;28;98444;-80
2023/01/03 11:32:52;;;;;;;6.53;3.58;;;;;;;12.91;57.10;101385.50;4930372;28;97277;-80
2023/01/03 11:35:38;;;;;;;7.60;3.92;;;;;;;12.85;56.96;101390.06;4922895;28;97367;-81
2023/01/03 11:38:34;;;;;;;8.18;3.63;;;;;;;12.82;57.34;101392.78;4909978;28;100858;-80
2023/01/03 11:41:10;;;;;;;7.93;4.20;;;;;;;12.77;57.31;101387.63;4915925;28;98137;-80
2023/01/03 11:43:45;;;;;;;5.22;3.38;;;;;;;12.76;58.01;101385.03;4951835;28;97347;-81
2023/01/03 11:46:36;;;;;;;9.57;4.22;;;;;;;12.71;57.65;101381.63;4918401;28;97486;-81
2023/01/03 11:49:08;;;;;;;7.13;3.70;;;;;;;12.68;57.47;101390.50;4903900;28;101214;-81
2023/01/03 11:51:56;;;;;;;4.22;2.72;;;;;;;12.67;57.02;101380.88;4943055;28;101379;-81
2023/01/03 11:54:36;;;;;;;2.88;2.33;;;;;;;12.59;55.64;101382.81;4943283;28;97008;-81
2023/01/03 11:57:07;;;;;;;3.38;1.70;;;;;;;12.63;55.12;101392.41;4926269;28;96915;-82
2023/01/03 12:00:18;;;;;;;4.93;2.03;;;;;;;12.65;55.05;101382.66;4886359;28;101932;-81
2023/01/03 12:03:01;;;;;;;11.15;3.65;;;;;;;12.61;54.75;101376.63;4913525;28;101751;-81
2023/01/03 12:05:32;;;;;;;5.50;2.10;;;;;;;12.66;54.21;101393.19;4914472;28;97545;-81
2023/01/03 12:08:01;;;;;;;;;;;;;;;12.58;53.88;101389.88;4914879;28;97527;-83
2023/01/03 12:10:53;;;;;;;9.70;2.30;;;;;;;12.59;53.60;101382.81;4948205;28;97880;-83
2023/01/03 12:13:31;;;;;;;6.10;1.90;;;;;;;12.61;53.51;101384.53;4899957;28;101805;-83
2023/01/03 12:16:38;;;;;;;6.78;2.63;;;;;;;12.61;53.58;101381.03;4920337;28;97134;-83
2023/01/03 12:19:15;;;;;;;5.43;2.45;;;;;;;12.49;53.30;101370.81;4932903;28;97171;-83
2023/01/03 12:21:52;;;;;;;3.28;1.80;;;;;;;12.54;53.67;101376.84;4909927;28;101545;-78
2023/01/03 12:24:36;;;;;;;6.95;2.38;;;;;;;12.54;53.64;101382.09;4929969;28;97620;-79
2023/01/03 12:27:08;;;;;;;3.30;2.10;;;;;;;12.53;53.68;101375.94;4956305;28;96860;-81
2023/01/03 12:29:58;;;;;;;8.85;3.13;;;;;;;12.56;53.58;101383.75;4945814;28;97215;-80
2023/01/03 12:32:36;;;;;;;5.07;2.13;;;;;;;12.55;53.63;101374.16;4938947;28;98218;-78